sensor_id;sensor_type;location;lat;lon;timestamp;P1;durP1;ratioP1;P2;durP2;ratioP2
80249;SDS011;69561;37.974;23.708;2023-05-07T00:00:17;3.58;;;2.53;;
80249;SDS011;69561;37.974;23.708;2023-05-07T00:02:44;3.10;;;2.58;;
80249;SDS011;69561;37.974;23.708;2023-05-07T00:05:13;2.88;;;2.58;;
80249;SDS011;69561;37.974;23.708;2023-05-07T00:07:39;2.47;;;2.28;;
80249;SDS011;69561;37.974;23.708;2023-05-07T00:10:05;2.70;;;2.50;;
80249;SDS011;69561;37.974;23.708;2023-05-07T00:12:32;2.58;;;2.38;;
80249;SDS011;69561;37.974;23.708;2023-05-07T00:15:01;2.60;;;2.40;;
80249;SDS011;69561;37.974;23.708;2023-05-07T00:17:28;2.60;;;2.40;;
80249;SDS011;69561;37.974;23.708;2023-05-07T00:19:54;2.90;;;2.05;;
80249;SDS011;69561;37.974;23.708;2023-05-07T00:22:20;2.67;;;2.42;;
80249;SDS011;69561;37.974;23.708;2023-05-07T00:24:46;2.97;;;2.60;;
80249;SDS011;69561;37.974;23.708;2023-05-07T00:27:12;2.55;;;2.35;;
80249;SDS011;69561;37.974;23.708;2023-05-07T00:29:37;2.83;;;2.53;;
80249;SDS011;69561;37.974;23.708;2023-05-07T00:32:03;2.97;;;2.50;;
80249;SDS011;69561;37.974;23.708;2023-05-07T00:34:30;3.42;;;2.25;;
80249;SDS011;69561;37.974;23.708;2023-05-07T00:36:55;3.75;;;2.58;;
80249;SDS011;69561;37.974;23.708;2023-05-07T00:39:21;4.10;;;2.60;;
80249;SDS011;69561;37.974;23.708;2023-05-07T00:44:31;2.42;;;2.20;;
80249;SDS011;69561;37.974;23.708;2023-05-07T00:46:57;3.03;;;2.60;;
80249;SDS011;69561;37.974;23.708;2023-05-07T00:49:25;2.55;;;2.30;;
80249;SDS011;69561;37.974;23.708;2023-05-07T00:52:05;2.92;;;2.40;;
80249;SDS011;69561;37.974;23.708;2023-05-07T00:54:32;3.70;;;2.50;;
80249;SDS011;69561;37.974;23.708;2023-05-07T00:56:59;3.35;;;2.50;;
80249;SDS011;69561;37.974;23.708;2023-05-07T00:59:27;3.17;;;2.70;;
80249;SDS011;69561;37.974;23.708;2023-05-07T01:01:52;2.72;;;2.38;;
80249;SDS011;69561;37.974;23.708;2023-05-07T01:04:18;3.38;;;2.58;;
80249;SDS011;69561;37.974;23.708;2023-05-07T01:06:44;2.97;;;2.67;;
80249;SDS011;69561;37.974;23.708;2023-05-07T01:09:11;2.80;;;2.50;;
80249;SDS011;69561;37.974;23.708;2023-05-07T01:11:38;2.88;;;2.50;;
80249;SDS011;69561;37.974;23.708;2023-05-07T01:14:04;3.47;;;2.83;;
80249;SDS011;69561;37.974;23.708;2023-05-07T01:16:31;2.75;;;2.53;;
80249;SDS011;69561;37.974;23.708;2023-05-07T01:18:57;3.10;;;2.50;;
80249;SDS011;69561;37.974;23.708;2023-05-07T01:21:25;3.78;;;2.70;;
80249;SDS011;69561;37.974;23.708;2023-05-07T01:23:51;3.08;;;2.30;;
80249;SDS011;69561;37.974;23.708;2023-05-07T01:26:18;3.35;;;2.53;;
80249;SDS011;69561;37.974;23.708;2023-05-07T01:28:45;2.83;;;2.20;;
80249;SDS011;69561;37.974;23.708;2023-05-07T01:31:11;3.90;;;2.85;;
80249;SDS011;69561;37.974;23.708;2023-05-07T01:33:38;2.67;;;2.20;;
80249;SDS011;69561;37.974;23.708;2023-05-07T01:36:07;2.65;;;2.28;;
80249;SDS011;69561;37.974;23.708;2023-05-07T01:38:36;3.33;;;2.53;;
80249;SDS011;69561;37.974;23.708;2023-05-07T01:41:02;3.70;;;2.83;;
80249;SDS011;69561;37.974;23.708;2023-05-07T01:43:28;3.30;;;2.58;;
80249;SDS011;69561;37.974;23.708;2023-05-07T01:45:55;3.55;;;2.67;;
80249;SDS011;69561;37.974;23.708;2023-05-07T01:48:22;3.58;;;2.47;;
80249;SDS011;69561;37.974;23.708;2023-05-07T01:50:49;3.25;;;2.60;;
80249;SDS011;69561;37.974;23.708;2023-05-07T01:53:16;3.35;;;2.60;;
80249;SDS011;69561;37.974;23.708;2023-05-07T01:55:42;2.90;;;2.60;;
80249;SDS011;69561;37.974;23.708;2023-05-07T01:58:07;2.60;;;2.40;;
80249;SDS011;69561;37.974;23.708;2023-05-07T02:00:33;3.65;;;2.75;;
80249;SDS011;69561;37.974;23.708;2023-05-07T02:02:59;2.50;;;2.30;;
80249;SDS011;69561;37.974;23.708;2023-05-07T02:05:25;3.15;;;2.20;;
80249;SDS011;69561;37.974;23.708;2023-05-07T02:07:51;5.78;;;2.53;;
80249;SDS011;69561;37.974;23.708;2023-05-07T02:10:16;3.05;;;2.20;;
80249;SDS011;69561;37.974;23.708;2023-05-07T02:12:42;2.20;;;2.00;;
80249;SDS011;69561;37.974;23.708;2023-05-07T02:15:08;3.00;;;2.70;;
80249;SDS011;69561;37.974;23.708;2023-05-07T02:17:34;3.53;;;2.50;;
80249;SDS011;69561;37.974;23.708;2023-05-07T02:20:00;3.05;;;2.33;;
80249;SDS011;69561;37.974;23.708;2023-05-07T02:22:26;2.80;;;2.60;;
80249;SDS011;69561;37.974;23.708;2023-05-07T02:24:51;4.07;;;2.83;;
80249;SDS011;69561;37.974;23.708;2023-05-07T02:27:17;4.03;;;2.50;;
80249;SDS011;69561;37.974;23.708;2023-05-07T02:29:43;3.05;;;2.55;;
80249;SDS011;69561;37.974;23.708;2023-05-07T02:32:08;2.65;;;2.45;;
80249;SDS011;69561;37.974;23.708;2023-05-07T02:34:34;3.15;;;2.50;;
80249;SDS011;69561;37.974;23.708;2023-05-07T02:37:00;3.20;;;2.40;;
80249;SDS011;69561;37.974;23.708;2023-05-07T02:39:25;3.58;;;2.50;;
80249;SDS011;69561;37.974;23.708;2023-05-07T02:41:51;3.45;;;2.40;;
80249;SDS011;69561;37.974;23.708;2023-05-07T02:44:17;3.67;;;2.90;;
80249;SDS011;69561;37.974;23.708;2023-05-07T02:46:42;3.97;;;2.85;;
80249;SDS011;69561;37.974;23.708;2023-05-07T02:49:08;2.63;;;2.42;;
80249;SDS011;69561;37.974;23.708;2023-05-07T02:51:34;4.25;;;2.63;;
80249;SDS011;69561;37.974;23.708;2023-05-07T02:53:59;3.65;;;2.80;;
80249;SDS011;69561;37.974;23.708;2023-05-07T02:56:26;3.60;;;2.78;;
80249;SDS011;69561;37.974;23.708;2023-05-07T02:58:52;5.03;;;2.53;;
80249;SDS011;69561;37.974;23.708;2023-05-07T03:01:17;2.65;;;2.38;;
80249;SDS011;69561;37.974;23.708;2023-05-07T03:03:43;2.70;;;2.38;;
80249;SDS011;69561;37.974;23.708;2023-05-07T03:06:09;2.78;;;2.40;;
80249;SDS011;69561;37.974;23.708;2023-05-07T03:08:35;2.70;;;2.45;;
80249;SDS011;69561;37.974;23.708;2023-05-07T03:11:01;3.55;;;2.50;;
80249;SDS011;69561;37.974;23.708;2023-05-07T03:13:27;2.90;;;2.30;;
80249;SDS011;69561;37.974;23.708;2023-05-07T03:15:53;2.80;;;2.47;;
80249;SDS011;69561;37.974;23.708;2023-05-07T03:18:19;2.63;;;2.30;;
80249;SDS011;69561;37.974;23.708;2023-05-07T03:20:44;3.60;;;2.70;;
80249;SDS011;69561;37.974;23.708;2023-05-07T03:23:11;2.95;;;2.50;;
80249;SDS011;69561;37.974;23.708;2023-05-07T03:25:36;3.42;;;2.50;;
80249;SDS011;69561;37.974;23.708;2023-05-07T03:28:02;2.78;;;2.28;;
80249;SDS011;69561;37.974;23.708;2023-05-07T03:30:28;4.38;;;2.55;;
80249;SDS011;69561;37.974;23.708;2023-05-07T03:32:53;3.40;;;2.70;;
80249;SDS011;69561;37.974;23.708;2023-05-07T03:35:19;2.97;;;2.60;;
80249;SDS011;69561;37.974;23.708;2023-05-07T03:37:45;3.05;;;2.50;;
80249;SDS011;69561;37.974;23.708;2023-05-07T03:40:11;3.05;;;2.47;;
80249;SDS011;69561;37.974;23.708;2023-05-07T03:42:37;2.90;;;2.17;;
80249;SDS011;69561;37.974;23.708;2023-05-07T03:45:03;2.83;;;2.55;;
80249;SDS011;69561;37.974;23.708;2023-05-07T03:47:29;4.55;;;2.63;;
80249;SDS011;69561;37.974;23.708;2023-05-07T03:49:55;2.80;;;2.33;;
80249;SDS011;69561;37.974;23.708;2023-05-07T03:52:21;4.15;;;2.67;;
80249;SDS011;69561;37.974;23.708;2023-05-07T03:54:50;3.50;;;2.25;;
80249;SDS011;69561;37.974;23.708;2023-05-07T03:57:17;3.22;;;2.50;;
80249;SDS011;69561;37.974;23.708;2023-05-07T03:59:43;3.15;;;2.35;;
80249;SDS011;69561;37.974;23.708;2023-05-07T04:02:08;4.43;;;2.45;;
80249;SDS011;69561;37.974;23.708;2023-05-07T04:04:34;4.50;;;2.40;;
80249;SDS011;69561;37.974;23.708;2023-05-07T04:07:00;5.03;;;2.67;;
80249;SDS011;69561;37.974;23.708;2023-05-07T04:09:25;3.63;;;2.40;;
80249;SDS011;69561;37.974;23.708;2023-05-07T04:11:51;3.00;;;2.42;;
80249;SDS011;69561;37.974;23.708;2023-05-07T04:14:17;4.38;;;2.25;;
80249;SDS011;69561;37.974;23.708;2023-05-07T04:16:42;3.25;;;2.30;;
80249;SDS011;69561;37.974;23.708;2023-05-07T04:19:08;3.00;;;2.33;;
80249;SDS011;69561;37.974;23.708;2023-05-07T04:21:34;3.17;;;2.03;;
80249;SDS011;69561;37.974;23.708;2023-05-07T04:23:59;3.25;;;2.28;;
80249;SDS011;69561;37.974;23.708;2023-05-07T04:26:25;3.40;;;2.22;;
80249;SDS011;69561;37.974;23.708;2023-05-07T04:28:51;2.45;;;2.13;;
80249;SDS011;69561;37.974;23.708;2023-05-07T04:31:16;4.25;;;2.13;;
80249;SDS011;69561;37.974;23.708;2023-05-07T04:33:42;2.35;;;2.15;;
80249;SDS011;69561;37.974;23.708;2023-05-07T04:36:08;2.55;;;1.80;;
80249;SDS011;69561;37.974;23.708;2023-05-07T04:38:34;4.65;;;1.90;;
80249;SDS011;69561;37.974;23.708;2023-05-07T04:41:03;3.53;;;1.67;;
80249;SDS011;69561;37.974;23.708;2023-05-07T04:43:30;2.40;;;1.87;;
80249;SDS011;69561;37.974;23.708;2023-05-07T04:45:56;2.00;;;1.70;;
80249;SDS011;69561;37.974;23.708;2023-05-07T04:48:21;3.08;;;2.00;;
80249;SDS011;69561;37.974;23.708;2023-05-07T04:50:47;3.78;;;2.13;;
80249;SDS011;69561;37.974;23.708;2023-05-07T04:53:13;4.57;;;2.20;;
80249;SDS011;69561;37.974;23.708;2023-05-07T04:55:39;4.97;;;2.13;;
80249;SDS011;69561;37.974;23.708;2023-05-07T04:58:05;2.40;;;1.83;;
80249;SDS011;69561;37.974;23.708;2023-05-07T05:00:31;2.90;;;1.90;;
80249;SDS011;69561;37.974;23.708;2023-05-07T05:02:56;2.55;;;2.08;;
80249;SDS011;69561;37.974;23.708;2023-05-07T05:05:22;2.28;;;2.00;;
80249;SDS011;69561;37.974;23.708;2023-05-07T05:07:48;2.38;;;1.75;;
80249;SDS011;69561;37.974;23.708;2023-05-07T05:10:13;3.10;;;2.05;;
80249;SDS011;69561;37.974;23.708;2023-05-07T05:12:41;2.05;;;1.60;;
80249;SDS011;69561;37.974;23.708;2023-05-07T05:15:07;1.90;;;1.70;;
80249;SDS011;69561;37.974;23.708;2023-05-07T05:17:33;3.80;;;1.80;;
80249;SDS011;69561;37.974;23.708;2023-05-07T05:20:00;3.83;;;1.73;;
80249;SDS011;69561;37.974;23.708;2023-05-07T05:22:25;3.25;;;1.58;;
80249;SDS011;69561;37.974;23.708;2023-05-07T05:24:51;3.22;;;1.90;;
80249;SDS011;69561;37.974;23.708;2023-05-07T05:27:17;1.80;;;1.50;;
80249;SDS011;69561;37.974;23.708;2023-05-07T05:29:43;3.47;;;1.90;;
80249;SDS011;69561;37.974;23.708;2023-05-07T05:32:08;2.65;;;1.48;;
80249;SDS011;69561;37.974;23.708;2023-05-07T05:34:35;2.88;;;1.80;;
80249;SDS011;69561;37.974;23.708;2023-05-07T05:37:00;2.13;;;1.70;;
80249;SDS011;69561;37.974;23.708;2023-05-07T05:39:26;1.83;;;1.67;;
80249;SDS011;69561;37.974;23.708;2023-05-07T05:41:52;2.30;;;1.63;;
80249;SDS011;69561;37.974;23.708;2023-05-07T05:44:17;3.17;;;1.92;;
80249;SDS011;69561;37.974;23.708;2023-05-07T05:46:43;3.83;;;2.00;;
80249;SDS011;69561;37.974;23.708;2023-05-07T05:49:09;2.63;;;1.88;;
80249;SDS011;69561;37.974;23.708;2023-05-07T05:51:35;2.65;;;1.50;;
80249;SDS011;69561;37.974;23.708;2023-05-07T05:54:00;1.70;;;1.60;;
80249;SDS011;69561;37.974;23.708;2023-05-07T05:56:26;2.70;;;1.77;;
80249;SDS011;69561;37.974;23.708;2023-05-07T05:58:52;2.50;;;1.50;;
80249;SDS011;69561;37.974;23.708;2023-05-07T06:01:18;2.50;;;1.73;;
80249;SDS011;69561;37.974;23.708;2023-05-07T06:03:44;2.40;;;1.63;;
80249;SDS011;69561;37.974;23.708;2023-05-07T06:06:09;2.80;;;1.70;;
80249;SDS011;69561;37.974;23.708;2023-05-07T06:08:35;2.88;;;1.80;;
80249;SDS011;69561;37.974;23.708;2023-05-07T06:11:01;2.38;;;1.70;;
80249;SDS011;69561;37.974;23.708;2023-05-07T06:13:27;1.80;;;1.60;;
80249;SDS011;69561;37.974;23.708;2023-05-07T06:15:53;3.10;;;1.77;;
80249;SDS011;69561;37.974;23.708;2023-05-07T06:18:19;2.58;;;1.75;;
80249;SDS011;69561;37.974;23.708;2023-05-07T06:20:44;2.05;;;1.42;;
80249;SDS011;69561;37.974;23.708;2023-05-07T06:23:10;2.28;;;1.65;;
80249;SDS011;69561;37.974;23.708;2023-05-07T06:25:36;2.42;;;1.75;;
80249;SDS011;69561;37.974;23.708;2023-05-07T06:28:02;3.10;;;1.85;;
80249;SDS011;69561;37.974;23.708;2023-05-07T06:30:27;1.83;;;1.50;;
80249;SDS011;69561;37.974;23.708;2023-05-07T06:32:53;1.88;;;1.50;;
80249;SDS011;69561;37.974;23.708;2023-05-07T06:35:19;2.03;;;1.55;;
80249;SDS011;69561;37.974;23.708;2023-05-07T06:37:45;3.00;;;1.38;;
80249;SDS011;69561;37.974;23.708;2023-05-07T06:40:10;2.65;;;1.50;;
80249;SDS011;69561;37.974;23.708;2023-05-07T06:42:36;2.90;;;1.58;;
80249;SDS011;69561;37.974;23.708;2023-05-07T06:45:03;1.48;;;1.38;;
80249;SDS011;69561;37.974;23.708;2023-05-07T06:47:29;1.73;;;1.60;;
80249;SDS011;69561;37.974;23.708;2023-05-07T06:49:55;1.98;;;1.50;;
80249;SDS011;69561;37.974;23.708;2023-05-07T06:52:20;2.80;;;1.75;;
80249;SDS011;69561;37.974;23.708;2023-05-07T06:54:46;3.33;;;1.48;;
80249;SDS011;69561;37.974;23.708;2023-05-07T06:57:12;1.77;;;1.40;;
80249;SDS011;69561;37.974;23.708;2023-05-07T06:59:38;2.53;;;1.60;;
80249;SDS011;69561;37.974;23.708;2023-05-07T07:02:03;1.67;;;1.25;;
80249;SDS011;69561;37.974;23.708;2023-05-07T07:04:29;2.65;;;1.50;;
80249;SDS011;69561;37.974;23.708;2023-05-07T07:06:56;1.90;;;1.40;;
80249;SDS011;69561;37.974;23.708;2023-05-07T07:09:22;5.80;;;1.55;;
80249;SDS011;69561;37.974;23.708;2023-05-07T07:11:48;1.55;;;1.38;;
80249;SDS011;69561;37.974;23.708;2023-05-07T07:14:13;3.78;;;1.50;;
80249;SDS011;69561;37.974;23.708;2023-05-07T07:16:39;3.08;;;1.38;;
80249;SDS011;69561;37.974;23.708;2023-05-07T07:19:05;2.90;;;1.60;;
80249;SDS011;69561;37.974;23.708;2023-05-07T07:21:31;2.13;;;1.50;;
80249;SDS011;69561;37.974;23.708;2023-05-07T07:23:57;3.47;;;1.45;;
80249;SDS011;69561;37.974;23.708;2023-05-07T07:26:22;2.25;;;1.50;;
80249;SDS011;69561;37.974;23.708;2023-05-07T07:28:48;1.98;;;1.50;;
80249;SDS011;69561;37.974;23.708;2023-05-07T07:31:14;2.42;;;1.40;;
80249;SDS011;69561;37.974;23.708;2023-05-07T07:33:40;2.42;;;1.35;;
80249;SDS011;69561;37.974;23.708;2023-05-07T07:36:06;2.97;;;1.52;;
80249;SDS011;69561;37.974;23.708;2023-05-07T07:38:33;1.77;;;1.35;;
80249;SDS011;69561;37.974;23.708;2023-05-07T07:40:59;2.40;;;1.45;;
80249;SDS011;69561;37.974;23.708;2023-05-07T07:43:25;2.30;;;1.50;;
80249;SDS011;69561;37.974;23.708;2023-05-07T07:45:51;2.55;;;1.40;;
80249;SDS011;69561;37.974;23.708;2023-05-07T07:48:16;4.18;;;1.40;;
80249;SDS011;69561;37.974;23.708;2023-05-07T07:50:42;1.73;;;1.15;;
80249;SDS011;69561;37.974;23.708;2023-05-07T07:53:08;2.17;;;1.40;;
80249;SDS011;69561;37.974;23.708;2023-05-07T07:55:37;1.30;;;1.20;;
80249;SDS011;69561;37.974;23.708;2023-05-07T07:58:05;1.75;;;1.40;;
80249;SDS011;69561;37.974;23.708;2023-05-07T08:00:30;1.65;;;1.33;;
80249;SDS011;69561;37.974;23.708;2023-05-07T08:02:56;4.45;;;1.60;;
80249;SDS011;69561;37.974;23.708;2023-05-07T08:05:22;1.67;;;1.33;;
80249;SDS011;69561;37.974;23.708;2023-05-07T08:07:48;4.30;;;1.35;;
80249;SDS011;69561;37.974;23.708;2023-05-07T08:10:18;4.32;;;1.45;;
80249;SDS011;69561;37.974;23.708;2023-05-07T08:12:50;2.65;;;1.58;;
80249;SDS011;69561;37.974;23.708;2023-05-07T08:15:16;5.45;;;1.55;;
80249;SDS011;69561;37.974;23.708;2023-05-07T08:17:42;2.97;;;1.38;;
80249;SDS011;69561;37.974;23.708;2023-05-07T08:20:08;2.40;;;1.50;;
80249;SDS011;69561;37.974;23.708;2023-05-07T08:22:35;2.90;;;1.50;;
80249;SDS011;69561;37.974;23.708;2023-05-07T08:25:01;1.65;;;1.50;;
80249;SDS011;69561;37.974;23.708;2023-05-07T08:27:27;2.17;;;1.50;;
80249;SDS011;69561;37.974;23.708;2023-05-07T08:29:53;5.97;;;1.45;;
80249;SDS011;69561;37.974;23.708;2023-05-07T08:32:20;2.63;;;1.50;;
80249;SDS011;69561;37.974;23.708;2023-05-07T08:34:45;2.10;;;1.35;;
80249;SDS011;69561;37.974;23.708;2023-05-07T08:37:12;1.85;;;1.30;;
80249;SDS011;69561;37.974;23.708;2023-05-07T08:39:38;2.17;;;1.20;;
80249;SDS011;69561;37.974;23.708;2023-05-07T08:42:04;3.28;;;1.60;;
80249;SDS011;69561;37.974;23.708;2023-05-07T08:44:32;1.90;;;1.63;;
80249;SDS011;69561;37.974;23.708;2023-05-07T08:46:59;2.38;;;1.40;;
80249;SDS011;69561;37.974;23.708;2023-05-07T08:49:29;3.22;;;1.40;;
80249;SDS011;69561;37.974;23.708;2023-05-07T08:51:55;2.42;;;1.40;;
80249;SDS011;69561;37.974;23.708;2023-05-07T08:54:21;4.45;;;1.50;;
80249;SDS011;69561;37.974;23.708;2023-05-07T08:56:48;3.25;;;1.42;;
80249;SDS011;69561;37.974;23.708;2023-05-07T08:59:14;6.25;;;1.90;;
80249;SDS011;69561;37.974;23.708;2023-05-07T09:01:40;2.25;;;1.30;;
80249;SDS011;69561;37.974;23.708;2023-05-07T09:04:06;2.58;;;1.60;;
80249;SDS011;69561;37.974;23.708;2023-05-07T09:06:32;3.83;;;1.42;;
80249;SDS011;69561;37.974;23.708;2023-05-07T09:08:58;4.55;;;1.70;;
80249;SDS011;69561;37.974;23.708;2023-05-07T09:11:30;2.08;;;1.48;;
80249;SDS011;69561;37.974;23.708;2023-05-07T09:13:56;3.55;;;1.45;;
80249;SDS011;69561;37.974;23.708;2023-05-07T09:16:27;4.20;;;1.52;;
80249;SDS011;69561;37.974;23.708;2023-05-07T09:18:56;3.83;;;1.55;;
80249;SDS011;69561;37.974;23.708;2023-05-07T09:21:23;3.13;;;1.40;;
80249;SDS011;69561;37.974;23.708;2023-05-07T09:23:52;2.30;;;1.50;;
80249;SDS011;69561;37.974;23.708;2023-05-07T09:26:22;1.77;;;1.40;;
80249;SDS011;69561;37.974;23.708;2023-05-07T09:28:49;2.05;;;1.35;;
80249;SDS011;69561;37.974;23.708;2023-05-07T09:31:15;2.65;;;1.42;;
80249;SDS011;69561;37.974;23.708;2023-05-07T09:33:41;1.77;;;1.60;;
80249;SDS011;69561;37.974;23.708;2023-05-07T09:36:07;2.53;;;1.40;;
80249;SDS011;69561;37.974;23.708;2023-05-07T09:38:33;3.33;;;1.40;;
80249;SDS011;69561;37.974;23.708;2023-05-07T09:43:36;1.90;;;1.30;;
80249;SDS011;69561;37.974;23.708;2023-05-07T09:46:05;1.73;;;1.25;;
80249;SDS011;69561;37.974;23.708;2023-05-07T09:48:38;1.70;;;1.50;;
80249;SDS011;69561;37.974;23.708;2023-05-07T09:51:15;2.53;;;1.67;;
80249;SDS011;69561;37.974;23.708;2023-05-07T09:54:06;3.13;;;1.42;;
80249;SDS011;69561;37.974;23.708;2023-05-07T09:56:32;2.67;;;1.40;;
80249;SDS011;69561;37.974;23.708;2023-05-07T09:58:59;2.83;;;1.65;;
80249;SDS011;69561;37.974;23.708;2023-05-07T10:01:25;1.85;;;1.23;;
80249;SDS011;69561;37.974;23.708;2023-05-07T10:03:52;5.18;;;1.50;;
80249;SDS011;69561;37.974;23.708;2023-05-07T10:06:22;2.92;;;1.40;;
80249;SDS011;69561;37.974;23.708;2023-05-07T10:08:49;1.85;;;1.50;;
80249;SDS011;69561;37.974;23.708;2023-05-07T10:11:17;1.73;;;1.30;;
80249;SDS011;69561;37.974;23.708;2023-05-07T10:13:43;5.65;;;1.58;;
80249;SDS011;69561;37.974;23.708;2023-05-07T10:16:09;2.40;;;1.55;;
80249;SDS011;69561;37.974;23.708;2023-05-07T10:18:35;6.60;;;1.67;;
80249;SDS011;69561;37.974;23.708;2023-05-07T10:21:11;2.72;;;1.40;;
80249;SDS011;69561;37.974;23.708;2023-05-07T10:23:50;4.40;;;1.48;;
80249;SDS011;69561;37.974;23.708;2023-05-07T10:26:21;3.72;;;1.40;;
80249;SDS011;69561;37.974;23.708;2023-05-07T10:28:49;3.55;;;1.50;;
80249;SDS011;69561;37.974;23.708;2023-05-07T10:34:09;3.15;;;1.48;;
80249;SDS011;69561;37.974;23.708;2023-05-07T10:36:38;5.00;;;1.60;;
80249;SDS011;69561;37.974;23.708;2023-05-07T10:39:05;2.60;;;1.45;;
80249;SDS011;69561;37.974;23.708;2023-05-07T10:41:31;2.35;;;1.40;;
80249;SDS011;69561;37.974;23.708;2023-05-07T10:43:57;2.47;;;1.80;;
80249;SDS011;69561;37.974;23.708;2023-05-07T10:46:26;2.38;;;1.70;;
80249;SDS011;69561;37.974;23.708;2023-05-07T10:51:28;4.32;;;1.50;;
80249;SDS011;69561;37.974;23.708;2023-05-07T10:56:36;2.20;;;1.50;;
80249;SDS011;69561;37.974;23.708;2023-05-07T11:01:56;1.70;;;1.45;;
80249;SDS011;69561;37.974;23.708;2023-05-07T11:04:29;2.85;;;1.77;;
80249;SDS011;69561;37.974;23.708;2023-05-07T11:17:32;5.05;;;1.70;;
80249;SDS011;69561;37.974;23.708;2023-05-07T11:20:16;2.17;;;1.50;;
80249;SDS011;69561;37.974;23.708;2023-05-07T11:22:42;3.55;;;1.67;;
80249;SDS011;69561;37.974;23.708;2023-05-07T11:25:08;2.88;;;1.75;;
80249;SDS011;69561;37.974;23.708;2023-05-07T11:27:34;3.42;;;1.58;;
80249;SDS011;69561;37.974;23.708;2023-05-07T11:30:00;2.10;;;1.63;;
80249;SDS011;69561;37.974;23.708;2023-05-07T11:32:29;3.17;;;1.65;;
80249;SDS011;69561;37.974;23.708;2023-05-07T11:34:57;3.35;;;1.42;;
80249;SDS011;69561;37.974;23.708;2023-05-07T11:37:24;3.30;;;1.85;;
80249;SDS011;69561;37.974;23.708;2023-05-07T11:40:01;3.50;;;1.60;;
80249;SDS011;69561;37.974;23.708;2023-05-07T11:42:38;2.45;;;1.60;;
80249;SDS011;69561;37.974;23.708;2023-05-07T11:45:05;7.70;;;1.40;;
80249;SDS011;69561;37.974;23.708;2023-05-07T11:47:32;2.67;;;1.80;;
80249;SDS011;69561;37.974;23.708;2023-05-07T11:50:03;2.42;;;1.65;;
80249;SDS011;69561;37.974;23.708;2023-05-07T11:52:30;1.92;;;1.65;;
80249;SDS011;69561;37.974;23.708;2023-05-07T11:54:57;3.08;;;1.80;;
80249;SDS011;69561;37.974;23.708;2023-05-07T11:57:24;2.70;;;1.63;;
80249;SDS011;69561;37.974;23.708;2023-05-07T11:59:57;2.25;;;1.58;;
80249;SDS011;69561;37.974;23.708;2023-05-07T12:02:24;1.60;;;1.50;;
80249;SDS011;69561;37.974;23.708;2023-05-07T12:04:50;2.55;;;2.00;;
80249;SDS011;69561;37.974;23.708;2023-05-07T12:07:17;2.30;;;1.60;;
80249;SDS011;69561;37.974;23.708;2023-05-07T12:09:46;2.05;;;1.58;;
80249;SDS011;69561;37.974;23.708;2023-05-07T12:12:12;2.15;;;1.70;;
80249;SDS011;69561;37.974;23.708;2023-05-07T12:14:43;3.60;;;1.60;;
80249;SDS011;69561;37.974;23.708;2023-05-07T12:17:10;3.38;;;1.75;;
80249;SDS011;69561;37.974;23.708;2023-05-07T12:19:39;2.40;;;1.70;;
80249;SDS011;69561;37.974;23.708;2023-05-07T12:22:10;1.83;;;1.55;;
80249;SDS011;69561;37.974;23.708;2023-05-07T12:27:13;1.83;;;1.48;;
80249;SDS011;69561;37.974;23.708;2023-05-07T12:29:39;3.83;;;1.60;;
80249;SDS011;69561;37.974;23.708;2023-05-07T12:34:40;2.88;;;1.67;;
80249;SDS011;69561;37.974;23.708;2023-05-07T12:37:06;2.22;;;1.88;;
80249;SDS011;69561;37.974;23.708;2023-05-07T12:39:32;2.25;;;1.60;;
80249;SDS011;69561;37.974;23.708;2023-05-07T12:41:58;2.55;;;1.80;;
80249;SDS011;69561;37.974;23.708;2023-05-07T12:44:25;2.67;;;1.63;;
80249;SDS011;69561;37.974;23.708;2023-05-07T12:46:55;2.85;;;1.90;;
80249;SDS011;69561;37.974;23.708;2023-05-07T12:49:20;2.97;;;1.70;;
80249;SDS011;69561;37.974;23.708;2023-05-07T12:51:47;2.67;;;1.70;;
80249;SDS011;69561;37.974;23.708;2023-05-07T12:54:13;1.83;;;1.48;;
80249;SDS011;69561;37.974;23.708;2023-05-07T12:57:06;2.42;;;1.63;;
80249;SDS011;69561;37.974;23.708;2023-05-07T12:59:33;1.98;;;1.67;;
80249;SDS011;69561;37.974;23.708;2023-05-07T13:02:02;2.15;;;1.67;;
80249;SDS011;69561;37.974;23.708;2023-05-07T13:04:29;2.60;;;1.70;;
80249;SDS011;69561;37.974;23.708;2023-05-07T13:06:54;2.13;;;1.80;;
80249;SDS011;69561;37.974;23.708;2023-05-07T13:09:20;2.58;;;1.77;;
80249;SDS011;69561;37.974;23.708;2023-05-07T13:11:46;2.47;;;1.90;;
80249;SDS011;69561;37.974;23.708;2023-05-07T13:14:11;2.45;;;1.88;;
80249;SDS011;69561;37.974;23.708;2023-05-07T13:16:37;2.38;;;1.58;;
80249;SDS011;69561;37.974;23.708;2023-05-07T13:19:03;2.72;;;1.80;;
80249;SDS011;69561;37.974;23.708;2023-05-07T13:21:29;2.47;;;1.80;;
80249;SDS011;69561;37.974;23.708;2023-05-07T13:23:58;2.67;;;1.90;;
80249;SDS011;69561;37.974;23.708;2023-05-07T13:26:24;2.08;;;1.67;;
80249;SDS011;69561;37.974;23.708;2023-05-07T13:28:50;2.58;;;1.80;;
80249;SDS011;69561;37.974;23.708;2023-05-07T13:31:17;2.10;;;1.80;;
80249;SDS011;69561;37.974;23.708;2023-05-07T13:33:43;1.70;;;1.60;;
80249;SDS011;69561;37.974;23.708;2023-05-07T13:36:08;2.72;;;1.75;;
80249;SDS011;69561;37.974;23.708;2023-05-07T13:38:34;1.77;;;1.65;;
80249;SDS011;69561;37.974;23.708;2023-05-07T13:41:00;3.03;;;1.88;;
80249;SDS011;69561;37.974;23.708;2023-05-07T13:43:26;3.42;;;1.70;;
80249;SDS011;69561;37.974;23.708;2023-05-07T13:45:52;2.72;;;1.77;;
80249;SDS011;69561;37.974;23.708;2023-05-07T13:48:17;2.10;;;1.75;;
80249;SDS011;69561;37.974;23.708;2023-05-07T13:50:43;3.78;;;1.90;;
80249;SDS011;69561;37.974;23.708;2023-05-07T13:53:09;2.00;;;1.60;;
80249;SDS011;69561;37.974;23.708;2023-05-07T13:55:35;3.42;;;1.80;;
80249;SDS011;69561;37.974;23.708;2023-05-07T13:58:01;2.10;;;1.70;;
80249;SDS011;69561;37.974;23.708;2023-05-07T14:00:28;1.90;;;1.65;;
80249;SDS011;69561;37.974;23.708;2023-05-07T14:02:54;4.18;;;1.90;;
80249;SDS011;69561;37.974;23.708;2023-05-07T14:05:21;2.70;;;1.88;;
80249;SDS011;69561;37.974;23.708;2023-05-07T14:07:51;3.58;;;1.70;;
80249;SDS011;69561;37.974;23.708;2023-05-07T14:10:17;3.58;;;1.65;;
80249;SDS011;69561;37.974;23.708;2023-05-07T14:12:44;2.47;;;1.80;;
80249;SDS011;69561;37.974;23.708;2023-05-07T14:15:10;3.55;;;1.60;;
80249;SDS011;69561;37.974;23.708;2023-05-07T14:17:36;5.00;;;1.90;;
80249;SDS011;69561;37.974;23.708;2023-05-07T14:20:02;2.33;;;1.67;;
80249;SDS011;69561;37.974;23.708;2023-05-07T14:22:28;4.75;;;1.67;;
80249;SDS011;69561;37.974;23.708;2023-05-07T14:24:54;2.33;;;1.75;;
80249;SDS011;69561;37.974;23.708;2023-05-07T14:27:20;3.85;;;1.92;;
80249;SDS011;69561;37.974;23.708;2023-05-07T14:29:45;1.73;;;1.50;;
80249;SDS011;69561;37.974;23.708;2023-05-07T14:32:16;3.95;;;1.70;;
80249;SDS011;69561;37.974;23.708;2023-05-07T14:34:43;4.65;;;1.63;;
80249;SDS011;69561;37.974;23.708;2023-05-07T14:37:09;2.72;;;1.63;;
80249;SDS011;69561;37.974;23.708;2023-05-07T14:39:34;4.55;;;2.13;;
80249;SDS011;69561;37.974;23.708;2023-05-07T14:42:00;5.00;;;1.90;;
80249;SDS011;69561;37.974;23.708;2023-05-07T14:44:26;2.25;;;1.80;;
80249;SDS011;69561;37.974;23.708;2023-05-07T14:46:52;1.90;;;1.70;;
80249;SDS011;69561;37.974;23.708;2023-05-07T14:49:18;4.00;;;1.40;;
80249;SDS011;69561;37.974;23.708;2023-05-07T14:51:44;3.17;;;1.63;;
80249;SDS011;69561;37.974;23.708;2023-05-07T14:54:10;2.47;;;1.52;;
80249;SDS011;69561;37.974;23.708;2023-05-07T14:56:37;2.72;;;1.63;;
80249;SDS011;69561;37.974;23.708;2023-05-07T14:59:03;3.58;;;1.60;;
80249;SDS011;69561;37.974;23.708;2023-05-07T15:01:29;1.88;;;1.45;;